WZZ242 EKBI-LHBP
Flight info
| Callsign | WZZ242 |
|---|---|
| Flight time | 1h 35m |
| Altitude | 35000 |
| Route | ALS DCT BERIM DCT UNRIG DCT HDO DCT ODNEM DCT NIT/N0399F230 M748 ARFOX |
| Aircraft | A321/M-SDE3FGHIRWY/LB1 |
Departure
| Time | 2026-05-05 14:51 |
|---|---|
| Airport | Billund Airport (EKBI) |
Arrival
| Time | 2026-05-05 16:26 |
|---|---|
| Airport | Budapest Liszt Ferenc International Airport (LHBP) |
| Time | Latitude | Longitude | Altitude | Speed | Heading |
|---|---|---|---|---|---|
| 2026-05-05 14:09 | 55.74528 | 9.14681 | 242 ft | 0 kts | 356° |
| 2026-05-05 14:24 | 55.74527 | 9.14681 | 242 ft | 0 kts | 356° |
| 2026-05-05 14:41 | 55.74506 | 9.14684 | 241 ft | 4 kts | 357° |
| 2026-05-05 14:41 | 55.74479 | 9.14686 | 241 ft | 2 kts | 357° |
| 2026-05-05 14:41 | 55.74457 | 9.14684 | 241 ft | 4 kts | 35° |
| 2026-05-05 14:41 | 55.74445 | 9.14651 | 241 ft | 4 kts | 83° |
| 2026-05-05 14:42 | 55.74444 | 9.14633 | 241 ft | 0 kts | 86° |
| 2026-05-05 14:44 | 55.74445 | 9.14641 | 241 ft | 1 kts | 86° |
| 2026-05-05 14:44 | 55.74445 | 9.14665 | 241 ft | 3 kts | 86° |
| 2026-05-05 14:44 | 55.74447 | 9.14704 | 241 ft | 4 kts | 86° |
| 2026-05-05 14:45 | 55.74449 | 9.14759 | 241 ft | 6 kts | 86° |
| 2026-05-05 14:45 | 55.74452 | 9.14860 | 241 ft | 10 kts | 86° |
| 2026-05-05 14:45 | 55.74433 | 9.14968 | 241 ft | 10 kts | 145° |
| 2026-05-05 14:45 | 55.74362 | 9.14985 | 241 ft | 11 kts | 176° |
| 2026-05-05 14:46 | 55.74285 | 9.14994 | 241 ft | 12 kts | 176° |
| 2026-05-05 14:46 | 55.74214 | 9.15011 | 241 ft | 10 kts | 155° |
| 2026-05-05 14:46 | 55.74197 | 9.15113 | 241 ft | 10 kts | 81° |
| 2026-05-05 14:46 | 55.74202 | 9.15230 | 241 ft | 10 kts | 88° |
| 2026-05-05 14:47 | 55.74205 | 9.15364 | 241 ft | 11 kts | 88° |
| 2026-05-05 14:47 | 55.74209 | 9.15509 | 241 ft | 12 kts | 85° |
| 2026-05-05 14:47 | 55.74215 | 9.15665 | 241 ft | 13 kts | 86° |
| 2026-05-05 14:47 | 55.74221 | 9.15863 | 241 ft | 19 kts | 87° |
| 2026-05-05 14:48 | 55.74229 | 9.16115 | 241 ft | 21 kts | 86° |
| 2026-05-05 14:48 | 55.74238 | 9.16378 | 241 ft | 22 kts | 87° |
| 2026-05-05 14:48 | 55.74245 | 9.16641 | 241 ft | 21 kts | 87° |
| 2026-05-05 14:48 | 55.74254 | 9.16908 | 241 ft | 22 kts | 86° |
| 2026-05-05 14:49 | 55.74262 | 9.17180 | 241 ft | 22 kts | 86° |
| 2026-05-05 14:49 | 55.74271 | 9.17458 | 241 ft | 23 kts | 87° |
| 2026-05-05 14:49 | 55.74279 | 9.17732 | 241 ft | 23 kts | 86° |
| 2026-05-05 14:49 | 55.74286 | 9.17995 | 241 ft | 16 kts | 96° |
| 2026-05-05 14:50 | 55.74242 | 9.18135 | 241 ft | 13 kts | 150° |
| 2026-05-05 14:50 | 55.74153 | 9.18149 | 241 ft | 8 kts | 181° |
| 2026-05-05 14:50 | 55.74124 | 9.18123 | 242 ft | 4 kts | 245° |
| 2026-05-05 14:50 | 55.74118 | 9.17986 | 243 ft | 35 kts | 266° |
| 2026-05-05 14:51 | 55.74095 | 9.17120 | 245 ft | 103 kts | 266° |
| 2026-05-05 14:51 | 55.74044 | 9.15506 | 245 ft | 156 kts | 266° |
| 2026-05-05 14:51 | 55.73986 | 9.13514 | 805 ft | 157 kts | 268° |
| 2026-05-05 14:51 | 55.74104 | 9.11606 | 1503 ft | 157 kts | 296° |
| 2026-05-05 14:52 | 55.74687 | 9.09932 | 2061 ft | 167 kts | 308° |
| 2026-05-05 14:52 | 55.75426 | 9.08204 | 2361 ft | 186 kts | 310° |
| 2026-05-05 14:52 | 55.76287 | 9.06285 | 2557 ft | 210 kts | 310° |
| 2026-05-05 14:52 | 55.77252 | 9.04174 | 2933 ft | 229 kts | 311° |
| 2026-05-05 14:53 | 55.78313 | 9.01939 | 3558 ft | 243 kts | 311° |
| 2026-05-05 14:53 | 55.79289 | 8.99390 | 4102 ft | 258 kts | 290° |
| 2026-05-05 14:53 | 55.79372 | 8.96204 | 4775 ft | 266 kts | 254° |
| 2026-05-05 14:53 | 55.78400 | 8.93464 | 5506 ft | 271 kts | 219° |
| 2026-05-05 14:54 | 55.76687 | 8.92123 | 6251 ft | 275 kts | 185° |
| 2026-05-05 14:54 | 55.74792 | 8.92720 | 6957 ft | 280 kts | 152° |
| 2026-05-05 14:54 | 55.73285 | 8.94870 | 7622 ft | 285 kts | 134° |
| 2026-05-05 14:54 | 55.71921 | 8.97463 | 8340 ft | 289 kts | 134° |
| 2026-05-05 14:55 | 55.70540 | 9.00093 | 9053 ft | 294 kts | 135° |
| 2026-05-05 14:55 | 55.69138 | 9.02764 | 9723 ft | 299 kts | 135° |
| 2026-05-05 14:55 | 55.67684 | 9.05458 | 10205 ft | 309 kts | 140° |
| 2026-05-05 14:55 | 55.65984 | 9.07972 | 10358 ft | 329 kts | 146° |
| 2026-05-05 14:56 | 55.64056 | 9.10383 | 10487 ft | 349 kts | 149° |
| 2026-05-05 14:56 | 55.61977 | 9.12805 | 10763 ft | 364 kts | 150° |
| 2026-05-05 14:56 | 55.59841 | 9.15272 | 11317 ft | 369 kts | 150° |
| 2026-05-05 14:56 | 55.57698 | 9.17793 | 11942 ft | 373 kts | 149° |
| 2026-05-05 14:57 | 55.55542 | 9.20391 | 12563 ft | 376 kts | 149° |
| 2026-05-05 14:57 | 55.53392 | 9.23034 | 13194 ft | 380 kts | 149° |
| 2026-05-05 14:57 | 55.51207 | 9.25746 | 13824 ft | 384 kts | 149° |
| 2026-05-05 14:57 | 55.49017 | 9.28476 | 14377 ft | 387 kts | 149° |
| 2026-05-05 14:58 | 55.46802 | 9.31231 | 14942 ft | 391 kts | 149° |
| 2026-05-05 14:58 | 55.44572 | 9.33987 | 15503 ft | 394 kts | 149° |
| 2026-05-05 14:58 | 55.42319 | 9.36756 | 16071 ft | 397 kts | 149° |
| 2026-05-05 14:58 | 55.40040 | 9.39547 | 16639 ft | 400 kts | 149° |
| 2026-05-05 14:59 | 55.37745 | 9.42356 | 17202 ft | 403 kts | 149° |
| 2026-05-05 14:59 | 55.35432 | 9.45188 | 17757 ft | 407 kts | 150° |
| 2026-05-05 14:59 | 55.33098 | 9.48045 | 18291 ft | 410 kts | 150° |
| 2026-05-05 14:59 | 55.30746 | 9.50918 | 18767 ft | 413 kts | 150° |
| 2026-05-05 15:00 | 55.28375 | 9.53803 | 19272 ft | 416 kts | 150° |
| 2026-05-05 15:00 | 55.26799 | 9.55718 | 19594 ft | 417 kts | 150° |
| 2026-05-05 15:00 | 55.23596 | 9.59610 | 20240 ft | 421 kts | 150° |
| 2026-05-05 15:00 | 55.21178 | 9.62540 | 20718 ft | 423 kts | 150° |
| 2026-05-05 15:01 | 55.18752 | 9.65477 | 21176 ft | 426 kts | 150° |
| 2026-05-05 15:01 | 55.16339 | 9.68395 | 21627 ft | 428 kts | 150° |
| 2026-05-05 15:01 | 55.13850 | 9.71402 | 22081 ft | 431 kts | 150° |
| 2026-05-05 15:01 | 55.11377 | 9.74384 | 22517 ft | 433 kts | 150° |
| 2026-05-05 15:02 | 55.08885 | 9.77389 | 22940 ft | 436 kts | 150° |
| 2026-05-05 15:02 | 55.06417 | 9.80359 | 23359 ft | 438 kts | 150° |
| 2026-05-05 15:02 | 55.03899 | 9.83381 | 23739 ft | 441 kts | 150° |
| 2026-05-05 15:02 | 55.01366 | 9.86414 | 24104 ft | 443 kts | 150° |
| 2026-05-05 15:03 | 54.98787 | 9.89494 | 24468 ft | 445 kts | 150° |
| 2026-05-05 15:03 | 54.96225 | 9.92546 | 24828 ft | 447 kts | 150° |
| 2026-05-05 15:03 | 54.93656 | 9.95602 | 25180 ft | 449 kts | 150° |
| 2026-05-05 15:03 | 54.91066 | 9.98680 | 25530 ft | 451 kts | 150° |
| 2026-05-05 15:04 | 54.88482 | 10.01806 | 25868 ft | 454 kts | 149° |
| 2026-05-05 15:04 | 54.85957 | 10.05008 | 26202 ft | 457 kts | 147° |
| 2026-05-05 15:04 | 54.83416 | 10.08339 | 26532 ft | 459 kts | 147° |
| 2026-05-05 15:04 | 54.80875 | 10.11708 | 26850 ft | 461 kts | 147° |
| 2026-05-05 15:05 | 54.75740 | 10.18463 | 27486 ft | 465 kts | 147° |
| 2026-05-05 15:05 | 54.73142 | 10.21821 | 27812 ft | 467 kts | 147° |
| 2026-05-05 15:05 | 54.70523 | 10.25174 | 28137 ft | 469 kts | 148° |
| 2026-05-05 15:06 | 54.67892 | 10.28518 | 28465 ft | 471 kts | 148° |
| 2026-05-05 15:06 | 54.65247 | 10.31868 | 28794 ft | 472 kts | 148° |
| 2026-05-05 15:06 | 54.62604 | 10.35217 | 29242 ft | 470 kts | 148° |
| 2026-05-05 15:06 | 54.59980 | 10.38553 | 29689 ft | 469 kts | 148° |
| 2026-05-05 15:07 | 54.57353 | 10.41899 | 30112 ft | 468 kts | 148° |
| 2026-05-05 15:07 | 54.54731 | 10.45241 | 30470 ft | 468 kts | 148° |
| 2026-05-05 15:07 | 54.52117 | 10.48564 | 30819 ft | 467 kts | 148° |
| 2026-05-05 15:07 | 54.49507 | 10.51876 | 31166 ft | 466 kts | 148° |
| 2026-05-05 15:08 | 54.46892 | 10.55185 | 31510 ft | 466 kts | 149° |
| 2026-05-05 15:08 | 54.44281 | 10.58480 | 31846 ft | 465 kts | 149° |
| 2026-05-05 15:08 | 54.41672 | 10.61758 | 32186 ft | 465 kts | 149° |
| 2026-05-05 15:08 | 54.39063 | 10.65026 | 32508 ft | 464 kts | 149° |
| 2026-05-05 15:09 | 54.36489 | 10.68252 | 32822 ft | 464 kts | 149° |
| 2026-05-05 15:09 | 54.33884 | 10.71515 | 33151 ft | 464 kts | 149° |
| 2026-05-05 15:09 | 54.31285 | 10.74771 | 33471 ft | 463 kts | 149° |
| 2026-05-05 15:09 | 54.28682 | 10.78023 | 33783 ft | 463 kts | 149° |
| 2026-05-05 15:10 | 54.26082 | 10.81268 | 34064 ft | 463 kts | 149° |
| 2026-05-05 15:10 | 54.23474 | 10.84512 | 34322 ft | 462 kts | 149° |
| 2026-05-05 15:10 | 54.20875 | 10.87738 | 34559 ft | 462 kts | 149° |
| 2026-05-05 15:10 | 54.18271 | 10.90968 | 34801 ft | 462 kts | 149° |
| 2026-05-05 15:11 | 54.15667 | 10.94190 | 34908 ft | 463 kts | 150° |
| 2026-05-05 15:11 | 54.10450 | 11.00632 | 34931 ft | 463 kts | 150° |
| 2026-05-05 15:12 | 54.05234 | 11.07061 | 34932 ft | 463 kts | 150° |
| 2026-05-05 15:12 | 54.00016 | 11.13467 | 34928 ft | 463 kts | 150° |
| 2026-05-05 15:13 | 53.94786 | 11.19860 | 34930 ft | 463 kts | 150° |
| 2026-05-05 15:13 | 53.89561 | 11.26246 | 34931 ft | 463 kts | 150° |
| 2026-05-05 15:14 | 53.84321 | 11.32630 | 34935 ft | 464 kts | 150° |
| 2026-05-05 15:14 | 53.79077 | 11.38980 | 34955 ft | 464 kts | 151° |
| 2026-05-05 15:15 | 53.73823 | 11.45312 | 34938 ft | 464 kts | 151° |
| 2026-05-05 15:15 | 53.68573 | 11.51644 | 34936 ft | 464 kts | 151° |
| 2026-05-05 15:16 | 53.63323 | 11.57965 | 34937 ft | 463 kts | 151° |
| 2026-05-05 15:16 | 53.58072 | 11.64251 | 34942 ft | 463 kts | 151° |
| 2026-05-05 15:17 | 53.52815 | 11.70515 | 34939 ft | 463 kts | 151° |
| 2026-05-05 15:17 | 53.47600 | 11.76711 | 34931 ft | 462 kts | 151° |
| 2026-05-05 15:18 | 53.42352 | 11.82932 | 34930 ft | 461 kts | 151° |
| 2026-05-05 15:18 | 53.37110 | 11.89135 | 34926 ft | 461 kts | 151° |
| 2026-05-05 15:19 | 53.31871 | 11.95329 | 34924 ft | 461 kts | 151° |
| 2026-05-05 15:19 | 53.26634 | 12.01485 | 34923 ft | 460 kts | 151° |
| 2026-05-05 15:20 | 53.21388 | 12.07625 | 34921 ft | 460 kts | 151° |
| 2026-05-05 15:20 | 53.16150 | 12.13751 | 34914 ft | 460 kts | 151° |
| 2026-05-05 15:21 | 53.10919 | 12.19854 | 34915 ft | 459 kts | 151° |
| 2026-05-05 15:21 | 53.05682 | 12.25933 | 34915 ft | 459 kts | 151° |
| 2026-05-05 15:22 | 53.00481 | 12.31942 | 34916 ft | 458 kts | 151° |
| 2026-05-05 15:22 | 52.95257 | 12.37971 | 34911 ft | 457 kts | 151° |
| 2026-05-05 15:23 | 52.90038 | 12.43984 | 34903 ft | 457 kts | 151° |
| 2026-05-05 15:23 | 52.85669 | 12.49017 | 34893 ft | 456 kts | 152° |
| 2026-05-05 15:24 | 52.80443 | 12.54990 | 34892 ft | 456 kts | 152° |
| 2026-05-05 15:24 | 52.75248 | 12.60908 | 34894 ft | 456 kts | 152° |
| 2026-05-05 15:25 | 52.70022 | 12.66843 | 34886 ft | 456 kts | 152° |
| 2026-05-05 15:25 | 52.64793 | 12.72780 | 34884 ft | 456 kts | 152° |
| 2026-05-05 15:26 | 52.59573 | 12.78698 | 34881 ft | 456 kts | 152° |
| 2026-05-05 15:26 | 52.54343 | 12.84595 | 34877 ft | 456 kts | 152° |
| 2026-05-05 15:27 | 52.49109 | 12.90483 | 34874 ft | 455 kts | 152° |
| 2026-05-05 15:27 | 52.43918 | 12.96298 | 34876 ft | 455 kts | 152° |
| 2026-05-05 15:28 | 52.38690 | 13.02134 | 34870 ft | 455 kts | 152° |
| 2026-05-05 15:28 | 52.33466 | 13.07967 | 34871 ft | 454 kts | 152° |
| 2026-05-05 15:29 | 52.28242 | 13.13784 | 34869 ft | 454 kts | 152° |
| 2026-05-05 15:29 | 52.23003 | 13.19586 | 34871 ft | 454 kts | 152° |
| 2026-05-05 15:30 | 52.17772 | 13.25365 | 34877 ft | 454 kts | 152° |
| 2026-05-05 15:30 | 52.12542 | 13.31125 | 34869 ft | 454 kts | 152° |
| 2026-05-05 15:31 | 52.07311 | 13.36865 | 34867 ft | 453 kts | 152° |
| 2026-05-05 15:31 | 52.02085 | 13.42594 | 34859 ft | 453 kts | 152° |
| 2026-05-05 15:32 | 51.96852 | 13.48313 | 34857 ft | 453 kts | 152° |
| 2026-05-05 15:32 | 51.91619 | 13.54008 | 34857 ft | 453 kts | 152° |
| 2026-05-05 15:33 | 51.86402 | 13.59574 | 34849 ft | 449 kts | 156° |
| 2026-05-05 15:33 | 51.80902 | 13.64252 | 34848 ft | 447 kts | 158° |
| 2026-05-05 15:34 | 51.75377 | 13.68894 | 34844 ft | 447 kts | 158° |
| 2026-05-05 15:34 | 51.69854 | 13.73523 | 34848 ft | 447 kts | 158° |
| 2026-05-05 15:35 | 51.64327 | 13.78143 | 34845 ft | 447 kts | 158° |
| 2026-05-05 15:35 | 51.58803 | 13.82749 | 34846 ft | 447 kts | 158° |
| 2026-05-05 15:36 | 51.53280 | 13.87358 | 34840 ft | 447 kts | 158° |
| 2026-05-05 15:36 | 51.47750 | 13.91956 | 34837 ft | 447 kts | 158° |
| 2026-05-05 15:37 | 51.42215 | 13.96536 | 34844 ft | 447 kts | 158° |
| 2026-05-05 15:37 | 51.36686 | 14.01099 | 34843 ft | 447 kts | 157° |
| 2026-05-05 15:38 | 51.31169 | 14.05650 | 34845 ft | 447 kts | 157° |
| 2026-05-05 15:38 | 51.25636 | 14.10183 | 34843 ft | 446 kts | 157° |
| 2026-05-05 15:39 | 51.20104 | 14.14700 | 34842 ft | 447 kts | 157° |
| 2026-05-05 15:39 | 51.14571 | 14.19226 | 34838 ft | 447 kts | 157° |
| 2026-05-05 15:40 | 51.09039 | 14.23727 | 34834 ft | 447 kts | 157° |
| 2026-05-05 15:40 | 51.03518 | 14.28213 | 34829 ft | 447 kts | 156° |
| 2026-05-05 15:41 | 50.98014 | 14.32673 | 34825 ft | 447 kts | 156° |
| 2026-05-05 15:41 | 50.92573 | 14.37473 | 34825 ft | 451 kts | 147° |
| 2026-05-05 15:42 | 50.87808 | 14.44038 | 34822 ft | 455 kts | 141° |
| 2026-05-05 15:42 | 50.83114 | 14.50750 | 34821 ft | 455 kts | 141° |
| 2026-05-05 15:43 | 50.78409 | 14.57430 | 34818 ft | 455 kts | 142° |
| 2026-05-05 15:43 | 50.73692 | 14.64111 | 34813 ft | 455 kts | 142° |
| 2026-05-05 15:44 | 50.68980 | 14.70770 | 34811 ft | 455 kts | 142° |
| 2026-05-05 15:44 | 50.64253 | 14.77422 | 34809 ft | 455 kts | 142° |
| 2026-05-05 15:45 | 50.59531 | 14.84068 | 34796 ft | 455 kts | 142° |
| 2026-05-05 15:45 | 50.54803 | 14.90705 | 34792 ft | 456 kts | 142° |
| 2026-05-05 15:46 | 50.50067 | 14.97326 | 34782 ft | 456 kts | 142° |
| 2026-05-05 15:46 | 50.45319 | 15.03941 | 34784 ft | 456 kts | 142° |
| 2026-05-05 15:47 | 50.40561 | 15.10547 | 34780 ft | 457 kts | 142° |
| 2026-05-05 15:47 | 50.35799 | 15.17146 | 34780 ft | 457 kts | 142° |
| 2026-05-05 15:48 | 50.31034 | 15.23736 | 34778 ft | 457 kts | 142° |
| 2026-05-05 15:48 | 50.26264 | 15.30302 | 34780 ft | 457 kts | 142° |
| 2026-05-05 15:49 | 50.21495 | 15.36854 | 34780 ft | 457 kts | 142° |
| 2026-05-05 15:49 | 50.16729 | 15.43405 | 34773 ft | 456 kts | 142° |
| 2026-05-05 15:50 | 50.11993 | 15.49889 | 34773 ft | 456 kts | 142° |
| 2026-05-05 15:50 | 50.07215 | 15.56387 | 34766 ft | 456 kts | 142° |
| 2026-05-05 15:51 | 50.02433 | 15.62881 | 34766 ft | 456 kts | 142° |
| 2026-05-05 15:51 | 49.97652 | 15.69379 | 34765 ft | 456 kts | 141° |
| 2026-05-05 15:52 | 49.92871 | 15.75850 | 34765 ft | 456 kts | 142° |
| 2026-05-05 15:52 | 49.88076 | 15.82304 | 34768 ft | 457 kts | 142° |
| 2026-05-05 15:53 | 49.83275 | 15.88765 | 34774 ft | 457 kts | 142° |
| 2026-05-05 15:53 | 49.78474 | 15.95210 | 34784 ft | 457 kts | 142° |
| 2026-05-05 15:54 | 49.73664 | 16.01634 | 34786 ft | 457 kts | 142° |
| 2026-05-05 15:54 | 49.68853 | 16.08049 | 34798 ft | 457 kts | 142° |
| 2026-05-05 15:55 | 49.64045 | 16.14461 | 34793 ft | 457 kts | 142° |
| 2026-05-05 15:55 | 49.59230 | 16.20847 | 34785 ft | 457 kts | 142° |
| 2026-05-05 15:56 | 49.54409 | 16.27225 | 34791 ft | 457 kts | 142° |
| 2026-05-05 15:56 | 49.49623 | 16.33545 | 34793 ft | 457 kts | 142° |
| 2026-05-05 15:57 | 49.44788 | 16.39894 | 34797 ft | 457 kts | 142° |
| 2026-05-05 15:57 | 49.39956 | 16.46223 | 34787 ft | 457 kts | 142° |
| 2026-05-05 15:58 | 49.35119 | 16.52559 | 34798 ft | 457 kts | 142° |
| 2026-05-05 15:58 | 49.30291 | 16.58867 | 34791 ft | 456 kts | 142° |
| 2026-05-05 15:59 | 49.25458 | 16.65170 | 34796 ft | 456 kts | 142° |
| 2026-05-05 15:59 | 49.20622 | 16.71452 | 34786 ft | 456 kts | 142° |
| 2026-05-05 16:00 | 49.15779 | 16.77721 | 34786 ft | 456 kts | 142° |
| 2026-05-05 16:00 | 49.10923 | 16.83983 | 34548 ft | 457 kts | 143° |
| 2026-05-05 16:00 | 49.08494 | 16.87107 | 34306 ft | 457 kts | 143° |
| 2026-05-05 16:01 | 49.06063 | 16.90232 | 34065 ft | 457 kts | 142° |
| 2026-05-05 16:01 | 49.03634 | 16.93361 | 33826 ft | 458 kts | 142° |
| 2026-05-05 16:01 | 49.01200 | 16.96497 | 33564 ft | 458 kts | 142° |
| 2026-05-05 16:01 | 48.98760 | 16.99634 | 33288 ft | 459 kts | 142° |
| 2026-05-05 16:02 | 48.96317 | 17.02767 | 33018 ft | 460 kts | 142° |
| 2026-05-05 16:02 | 48.93898 | 17.05862 | 32747 ft | 461 kts | 142° |
| 2026-05-05 16:02 | 48.91441 | 17.09001 | 32486 ft | 461 kts | 142° |
| 2026-05-05 16:02 | 48.88977 | 17.12140 | 32225 ft | 462 kts | 142° |
| 2026-05-05 16:03 | 48.86510 | 17.15280 | 31955 ft | 463 kts | 142° |
| 2026-05-05 16:03 | 48.84156 | 17.18635 | 31693 ft | 466 kts | 136° |
| 2026-05-05 16:03 | 48.81918 | 17.22214 | 31435 ft | 468 kts | 136° |
| 2026-05-05 16:03 | 48.79674 | 17.25792 | 31180 ft | 469 kts | 136° |
| 2026-05-05 16:04 | 48.77422 | 17.29374 | 30886 ft | 469 kts | 136° |
| 2026-05-05 16:04 | 48.75165 | 17.32957 | 30200 ft | 470 kts | 136° |
| 2026-05-05 16:04 | 48.72906 | 17.36530 | 29542 ft | 469 kts | 136° |
| 2026-05-05 16:04 | 48.70657 | 17.40081 | 28963 ft | 465 kts | 136° |
| 2026-05-05 16:05 | 48.68427 | 17.43598 | 28380 ft | 461 kts | 136° |
| 2026-05-05 16:05 | 48.66218 | 17.47079 | 27812 ft | 457 kts | 136° |
| 2026-05-05 16:05 | 48.64028 | 17.50531 | 27237 ft | 453 kts | 136° |
| 2026-05-05 16:05 | 48.61857 | 17.53950 | 26699 ft | 449 kts | 136° |
| 2026-05-05 16:06 | 48.59705 | 17.57334 | 26165 ft | 445 kts | 136° |
| 2026-05-05 16:06 | 48.57571 | 17.60686 | 25638 ft | 441 kts | 136° |
| 2026-05-05 16:06 | 48.55452 | 17.64018 | 25113 ft | 437 kts | 136° |
| 2026-05-05 16:06 | 48.53356 | 17.67307 | 24610 ft | 433 kts | 136° |
| 2026-05-05 16:07 | 48.51271 | 17.70567 | 24107 ft | 430 kts | 136° |
| 2026-05-05 16:07 | 48.49204 | 17.73788 | 23622 ft | 426 kts | 137° |
| 2026-05-05 16:07 | 48.47156 | 17.76980 | 23089 ft | 422 kts | 136° |
| 2026-05-05 16:07 | 48.45123 | 17.80150 | 22529 ft | 419 kts | 136° |
| 2026-05-05 16:08 | 48.43105 | 17.83292 | 22001 ft | 415 kts | 137° |
| 2026-05-05 16:08 | 48.41106 | 17.86404 | 21514 ft | 412 kts | 137° |
| 2026-05-05 16:08 | 48.39119 | 17.89490 | 21022 ft | 409 kts | 137° |
| 2026-05-05 16:08 | 48.37147 | 17.92548 | 20572 ft | 406 kts | 137° |
| 2026-05-05 16:09 | 48.35186 | 17.95589 | 20121 ft | 403 kts | 137° |
| 2026-05-05 16:09 | 48.33241 | 17.98599 | 19671 ft | 400 kts | 137° |
| 2026-05-05 16:09 | 48.31308 | 18.01582 | 19221 ft | 397 kts | 137° |
| 2026-05-05 16:09 | 48.29391 | 18.04540 | 18773 ft | 394 kts | 137° |
| 2026-05-05 16:10 | 48.28137 | 18.06501 | 18476 ft | 392 kts | 136° |
| 2026-05-05 16:10 | 48.26296 | 18.09494 | 18018 ft | 389 kts | 135° |
| 2026-05-05 16:10 | 48.24499 | 18.12504 | 17529 ft | 385 kts | 134° |
| 2026-05-05 16:10 | 48.22732 | 18.15501 | 17052 ft | 381 kts | 134° |
| 2026-05-05 16:11 | 48.20984 | 18.18465 | 16580 ft | 377 kts | 134° |
| 2026-05-05 16:11 | 48.15823 | 18.27117 | 15160 ft | 365 kts | 135° |
| 2026-05-05 16:12 | 48.14130 | 18.29925 | 14697 ft | 361 kts | 135° |
| 2026-05-05 16:12 | 48.10788 | 18.35459 | 13784 ft | 355 kts | 135° |
| 2026-05-05 16:13 | 48.05868 | 18.43571 | 12457 ft | 349 kts | 135° |
| 2026-05-05 16:13 | 48.04241 | 18.46246 | 12043 ft | 347 kts | 135° |
| 2026-05-05 16:13 | 48.02620 | 18.48909 | 11641 ft | 345 kts | 135° |
| 2026-05-05 16:14 | 47.99415 | 18.54179 | 10840 ft | 341 kts | 135° |
| 2026-05-05 16:14 | 47.96009 | 18.58966 | 10072 ft | 333 kts | 147° |
| 2026-05-05 16:15 | 47.92341 | 18.62891 | 9658 ft | 312 kts | 147° |
| 2026-05-05 16:15 | 47.88950 | 18.66538 | 9391 ft | 289 kts | 148° |
| 2026-05-05 16:16 | 47.85771 | 18.69947 | 8917 ft | 277 kts | 148° |
| 2026-05-05 16:16 | 47.82667 | 18.73251 | 8239 ft | 275 kts | 148° |
| 2026-05-05 16:17 | 47.79571 | 18.76542 | 7596 ft | 272 kts | 148° |
| 2026-05-05 16:17 | 47.78037 | 18.78176 | 7287 ft | 271 kts | 148° |
| 2026-05-05 16:18 | 47.74985 | 18.81428 | 6666 ft | 269 kts | 148° |
| 2026-05-05 16:18 | 47.73467 | 18.83043 | 6388 ft | 268 kts | 148° |
| 2026-05-05 16:18 | 47.70455 | 18.86247 | 5783 ft | 264 kts | 148° |
| 2026-05-05 16:19 | 47.68989 | 18.87808 | 5662 ft | 256 kts | 147° |
| 2026-05-05 16:19 | 47.67559 | 18.89330 | 5535 ft | 249 kts | 148° |
| 2026-05-05 16:19 | 47.64827 | 18.92225 | 5297 ft | 231 kts | 148° |
| 2026-05-05 16:20 | 47.62321 | 18.94875 | 4936 ft | 215 kts | 149° |
| 2026-05-05 16:20 | 47.59991 | 18.97575 | 4439 ft | 209 kts | 140° |
| 2026-05-05 16:21 | 47.58128 | 19.00519 | 4177 ft | 186 kts | 137° |
| 2026-05-05 16:22 | 47.55617 | 19.04611 | 3504 ft | 174 kts | 138° |
| 2026-05-05 16:22 | 47.54006 | 19.07234 | 3058 ft | 171 kts | 138° |
| 2026-05-05 16:23 | 47.52416 | 19.09824 | 2606 ft | 167 kts | 138° |
| 2026-05-05 16:23 | 47.51646 | 19.11077 | 2388 ft | 163 kts | 137° |
| 2026-05-05 16:23 | 47.50141 | 19.13522 | 1967 ft | 159 kts | 137° |
| 2026-05-05 16:24 | 47.49402 | 19.14722 | 1781 ft | 158 kts | 137° |
| 2026-05-05 16:24 | 47.48659 | 19.15928 | 1557 ft | 160 kts | 138° |
| 2026-05-05 16:24 | 47.47166 | 19.18364 | 1145 ft | 157 kts | 136° |
| 2026-05-05 16:25 | 47.46445 | 19.19581 | 947 ft | 159 kts | 138° |
| 2026-05-05 16:25 | 47.44947 | 19.21960 | 519 ft | 156 kts | 136° |
| 2026-05-05 16:25 | 47.44263 | 19.23073 | 456 ft | 134 kts | 135° |
| 2026-05-05 16:26 | 47.43303 | 19.24602 | 454 ft | 67 kts | 131° |
| 2026-05-05 16:26 | 47.43099 | 19.25021 | 457 ft | 15 kts | 85° |
| 2026-05-05 16:27 | 47.43161 | 19.25145 | 456 ft | 16 kts | 41° |
| 2026-05-05 16:27 | 47.43247 | 19.25257 | 456 ft | 17 kts | 41° |
| 2026-05-05 16:27 | 47.43335 | 19.25376 | 457 ft | 18 kts | 43° |
| 2026-05-05 16:27 | 47.43430 | 19.25503 | 457 ft | 19 kts | 41° |
| 2026-05-05 16:28 | 47.43529 | 19.25636 | 457 ft | 20 kts | 42° |
| 2026-05-05 16:28 | 47.43632 | 19.25776 | 457 ft | 21 kts | 42° |
| 2026-05-05 16:28 | 47.43725 | 19.25900 | 457 ft | 10 kts | 51° |
| 2026-05-05 16:28 | 47.43720 | 19.25998 | 457 ft | 11 kts | 122° |
| 2026-05-05 16:29 | 47.43678 | 19.26093 | 457 ft | 12 kts | 105° |
| 2026-05-05 16:29 | 47.43678 | 19.26220 | 457 ft | 13 kts | 87° |
| 2026-05-05 16:29 | 47.43662 | 19.26353 | 458 ft | 14 kts | 124° |
| 2026-05-05 16:29 | 47.43615 | 19.26432 | 458 ft | 6 kts | 140° |
| 2026-05-05 16:30 | 47.43582 | 19.26415 | 457 ft | 5 kts | 220° |
| 2026-05-05 16:30 | 47.43564 | 19.26392 | 456 ft | 0 kts | 222° |